Date,TemperatureHighF,TemperatureAvgF,TemperatureLowF,DewpointHighF,DewpointAvgF,DewpointLowF,HumidityHigh,HumidityAvg,HumidityLow,PressureMaxIn,PressureMinIn,WindSpeedMaxMPH,WindSpeedAvgMPH,GustSpeedMaxMPH,PrecipitationSumIn
2013-1-1,84.2,68.9,56.8,64.4,58.8,54.7,94,73,42,0.00,40.00,16,3,17,0.00
2013-1-2,82.8,68.3,58.6,69.1,63.2,57.6,98,85,59,0.00,40.00,11,2,12,0.00
2013-1-3,86.2,71.4,61.7,73.4,64.9,58.8,99,82,40,0.00,40.00,14,3,15,0.01
2013-1-4,81.1,69.9,64.4,68.9,65.9,62.2,98,88,63,0.00,40.00,10,4,12,0.24
2013-1-5,84.9,70.1,62.1,65.8,63.2,60.4,98,80,50,0.00,40.00,13,4,13,0.00
2013-1-6,85.8,72.5,64.9,71.1,67.0,64.4,99,85,55,0.00,40.00,11,4,13,0.00
2013-1-7,81.5,70.8,66.2,68.5,66.3,63.5,95,87,58,0.00,40.00,11,4,13,0.38
2013-1-8,90.9,74.1,64.9,70.2,65.7,62.8,96,78,41,0.00,40.00,9,4,15,0.00
2013-1-9,90.7,77.5,69.6,72.0,66.5,61.2,93,72,40,0.00,40.00,15,5,15,0.00
2013-1-10,90.3,76.0,67.5,68.5,63.5,58.6,92,68,38,0.00,40.00,17,5,19,0.00
2013-1-11,89.2,73.5,62.6,67.3,62.5,58.6,94,71,38,0.00,40.00,13,3,13,0.00
2013-1-12,88.7,74.4,66.9,68.5,64.8,61.5,91,74,42,0.00,40.00,11,3,13,0.00
2013-1-13,87.8,73.0,65.1,66.6,63.4,59.5,91,73,43,0.00,40.00,10,3,12,0.00
2013-1-14,90.5,71.5,61.2,63.1,60.2,56.8,92,70,37,0.00,40.00,12,2,14,0.00
2013-1-15,85.3,70.7,59.4,69.1,60.5,56.3,94,72,44,0.00,40.00,9,2,11,0.00
2013-1-16,86.7,72.2,59.5,68.4,61.7,57.2,94,72,40,0.00,40.00,11,2,13,0.09
2013-1-17,82.0,68.0,60.4,68.9,59.7,48.4,93,76,60,0.00,40.00,21,6,21,0.00
2013-1-18,70.7,59.9,46.6,55.6,47.0,35.8,87,63,45,0.00,40.00,15,6,17,0.00
2013-1-19,80.8,67.4,58.1,63.1,59.7,55.2,93,78,50,0.00,40.00,11,4,14,0.00
2013-1-20,83.3,70.7,64.6,65.7,62.9,59.9,92,78,47,0.00,40.00,10,3,10,0.00
2013-1-21,77.9,67.9,61.7,64.9,61.6,58.3,91,81,62,0.00,40.00,12,4,13,0.00
2013-1-22,75.0,63.7,57.4,58.1,49.1,38.3,86,61,38,0.00,40.00,14,6,15,0.00
2013-1-23,81.9,62.4,53.1,49.8,41.3,34.3,65,48,19,0.00,40.00,15,5,15,0.00
2013-1-24,80.4,61.8,48.6,49.6,42.8,26.8,84,57,14,0.00,40.00,11,3,12,0.00
2013-1-25,86.0,61.9,45.9,53.1,47.9,43.7,92,65,28,0.00,40.00,8,2,10,0.00
2013-1-26,85.5,63.5,48.4,50.9,46.5,35.8,90,60,19,0.00,40.00,11,2,11,0.00
2013-1-27,84.2,67.9,53.6,57.2,53.1,49.8,90,63,33,0.00,40.00,11,4,14,0.00
2013-1-28,90.5,72.9,63.9,62.2,58.9,55.9,82,64,36,0.00,40.00,13,4,17,0.00
2013-1-29,88.9,73.1,62.4,66.6,62.2,57.4,92,71,41,0.00,40.00,15,4,15,0.00
2013-1-30,85.6,73.5,64.8,65.3,63.0,60.1,90,71,44,0.00,40.00,23,7,23,0.00
2013-1-31,74.1,64.2,49.6,67.5,51.6,32.4,91,67,34,0.00,40.00,17,6,17,0.24
2013-2-1,75.9,57.1,44.2,42.1,34.7,27.0,73,46,18,0.00,40.00,17,6,17,0.00
2013-2-2,83.3,60.4,45.5,46.9,41.4,34.3,81,53,23,0.00,40.00,12,3,13,0.00
2013-2-3,78.6,60.4,45.0,52.5,39.8,18.1,86,55,12,0.00,40.00,15,4,16,0.00
2013-2-4,78.4,59.0,41.5,54.7,39.4,17.2,96,58,12,0.00,40.00,8,2,10,0.00
2013-2-5,82.6,65.2,47.5,58.8,50.1,41.4,82,61,35,0.00,40.00,11,3,12,0.00
2013-2-6,83.7,69.4,55.2,62.4,57.5,51.6,88,68,42,0.00,40.00,11,2,12,0.00
2013-2-7,84.2,72.0,61.5,65.1,60.5,57.7,91,69,43,0.00,40.00,17,4,17,0.00
2013-2-8,86.4,73.2,62.2,68.4,60.6,50.0,89,67,32,0.00,40.00,15,5,15,0.00
2013-2-9,87.1,68.8,55.8,60.3,56.6,53.4,93,68,36,0.00,40.00,15,5,60,0.00
2013-2-10,87.1,72.2,62.6,61.0,58.2,54.7,81,64,34,0.00,40.00,14,5,17,0.00
2013-2-11,86.0,72.2,62.6,64.0,61.1,57.9,88,70,42,0.00,40.00,14,4,15,0.00
2013-2-12,84.4,72.9,63.0,67.5,64.1,59.4,93,76,53,0.00,40.00,17,4,20,0.00
2013-2-13,83.7,75.8,67.6,70.5,68.5,64.6,92,79,58,0.00,40.00,17,7,17,0.00
2013-2-14,80.6,64.2,59.5,69.1,59.7,55.6,92,86,65,0.00,40.00,18,5,23,1.81
2013-2-15,72.3,63.9,60.1,61.5,58.4,55.6,90,83,63,0.00,40.00,7,2,10,0.04
2013-2-16,70.3,62.3,54.7,60.1,49.9,39.0,90,65,43,0.00,40.00,21,6,23,0.01
2013-2-17,62.2,51.0,40.8,40.5,24.5,15.4,68,38,17,0.00,40.00,19,7,20,0.00
2013-2-18,77.9,56.2,37.6,48.0,37.1,20.8,72,51,29,0.00,40.00,15,5,17,0.00
2013-2-19,83.5,66.3,51.8,60.8,54.7,45.5,89,69,45,0.00,40.00,13,3,15,0.00
2013-2-20,79.3,60.5,54.9,64.0,55.9,52.3,92,86,50,0.00,40.00,8,1,8,0.00
2013-2-23,86.0,76.5,71.1,68.7,67.7,66.2,88,75,54,0.00,40.00,15,4,20,0.00
2013-2-24,84.9,75.3,69.3,73.9,67.0,64.6,90,77,52,0.00,40.00,13,4,17,0.00
2013-2-25,87.6,75.2,65.3,69.4,65.4,61.7,92,74,46,0.00,40.00,15,4,15,0.01
2013-2-26,85.8,76.1,66.6,69.4,67.1,61.5,85,74,55,0.00,40.00,25,8,34,0.01
2013-2-27,78.8,67.5,62.2,65.3,59.6,54.3,90,77,50,0.00,40.00,9,2,10,0.26
2013-2-28,77.2,65.3,59.7,56.3,52.8,50.0,80,66,41,0.00,40.00,15,3,15,0.00
2013-3-1,68.7,62.0,57.6,55.2,47.3,39.6,80,59,43,0.00,40.00,10,4,12,0.00
2013-3-2,62.6,57.0,52.5,43.0,39.9,36.9,64,53,42,0.00,40.00,15,5,17,0.00
2013-3-3,60.8,52.5,42.4,45.1,40.6,32.4,85,65,43,0.00,40.00,16,5,20,0.09
2013-3-4,70.5,52.5,36.3,43.7,37.0,28.9,85,60,23,0.00,40.00,12,4,13,0.00
2013-3-5,76.3,59.1,41.2,55.6,47.7,37.9,89,69,44,0.00,40.00,16,3,17,0.00
2013-3-6,72.0,63.4,48.7,59.7,48.4,25.7,88,61,19,0.00,40.00,20,6,26,0.00
2013-3-7,72.7,56.0,45.5,44.6,37.3,29.7,74,52,21,0.00,40.00,14,6,16,0.00
2013-3-8,81.9,60.2,42.3,48.0,41.6,33.1,85,56,18,0.00,40.00,11,3,15,0.00
2013-3-9,81.9,64.8,48.2,51.1,45.4,35.8,87,55,20,0.00,40.00,11,4,12,0.00
2013-3-10,85.5,69.0,56.1,56.8,51.8,48.9,80,57,31,0.00,40.00,19,5,19,0.00
2013-3-11,82.4,70.1,59.2,59.2,55.7,52.0,82,62,41,0.00,40.00,15,5,21,0.00
2013-3-12,78.4,67.8,58.6,65.1,59.3,50.7,83,74,62,0.00,40.00,15,6,22,0.00
2013-3-13,81.5,64.5,54.5,50.9,42.9,27.0,80,51,14,0.00,40.00,15,6,16,0.00
2013-3-14,77.5,60.5,48.2,45.7,34.4,13.3,78,45,10,0.00,40.00,18,6,22,0.00
2013-3-15,81.1,60.3,45.0,43.7,34.3,14.4,78,47,11,0.00,40.00,13,4,19,0.00
2013-3-16,78.3,61.4,45.7,52.5,44.9,33.3,86,59,21,0.00,40.00,15,3,15,0.00
2013-3-17,82.4,65.5,51.8,57.7,52.2,47.1,86,65,39,0.00,40.00,16,3,17,0.00
2013-3-18,83.3,69.1,61.3,65.3,60.2,53.4,86,74,50,0.00,40.00,17,5,17,0.17
2013-3-19,85.5,71.6,64.0,65.8,62.5,59.2,88,74,47,0.00,40.00,21,4,22,0.02
2013-3-20,80.4,67.3,59.5,63.9,59.0,54.9,90,77,45,0.00,40.00,17,3,17,0.08
2013-3-21,82.6,65.9,51.4,60.1,47.3,23.4,87,57,12,0.00,40.00,15,5,16,0.00
2013-3-22,84.9,67.3,50.2,66.2,53.4,37.6,81,62,43,0.00,40.00,15,4,21,0.00
2013-3-23,87.3,77.5,70.0,70.2,65.1,61.5,87,67,44,0.00,40.00,16,6,19,0.00
2013-3-24,83.7,76.3,69.6,70.3,67.6,62.6,87,75,62,0.00,40.00,27,9,27,0.05
2013-3-25,79.7,71.0,58.5,70.0,49.2,21.2,87,52,14,0.00,40.00,15,6,17,0.00
2013-3-26,67.1,57.4,48.7,44.1,37.1,29.1,72,48,29,0.00,40.00,21,7,54,0.00
2013-3-27,70.0,54.8,43.0,42.1,33.8,24.6,69,48,20,0.00,40.00,13,6,15,0.00
2013-3-28,80.4,58.5,41.7,43.5,34.0,16.7,80,48,10,0.00,40.00,13,4,15,0.00
2013-3-29,82.9,63.0,44.6,47.5,39.9,32.9,84,50,18,0.00,40.00,15,3,15,0.00
2013-3-30,81.3,65.5,51.6,52.5,49.0,43.2,84,58,32,0.00,40.00,15,3,16,0.00
2013-3-31,83.8,69.2,53.8,58.5,54.4,47.8,83,62,38,0.00,40.00,17,4,17,0.00
2013-4-1,85.1,72.4,61.9,66.6,61.1,55.6,86,70,43,0.00,40.00,16,4,18,0.00
2013-4-2,86.9,74.6,64.4,65.7,61.4,57.7,88,66,40,0.00,40.00,16,3,16,0.00
2013-4-3,92.5,76.4,65.7,65.8,62.2,58.5,83,64,35,0.00,40.00,20,5,20,0.00
2013-4-4,85.1,72.0,65.5,68.4,63.9,59.9,88,76,54,0.00,40.00,15,6,25,0.98
2013-4-5,75.4,69.0,62.6,63.9,59.7,52.3,89,73,50,0.00,40.00,15,6,21,0.81
2013-4-6,85.8,68.6,60.1,58.1,54.3,50.9,79,62,38,0.00,40.00,12,5,14,0.00
2013-4-7,92.3,73.3,60.3,60.6,57.0,52.0,85,60,27,0.00,40.00,15,4,19,0.00
2013-4-8,93.7,75.9,62.1,61.2,57.6,53.1,81,55,29,0.00,40.00,11,4,12,0.00
2013-4-9,92.3,75.5,62.4,64.0,59.0,55.0,85,59,30,0.00,40.00,12,4,14,0.00
2013-4-10,91.8,76.4,65.3,68.2,64.0,60.3,85,67,40,0.00,40.00,16,4,16,0.02
2013-4-11,90.9,79.0,70.3,68.9,66.3,64.2,85,67,43,0.00,40.00,21,7,23,0.02
2013-4-12,89.1,79.8,73.9,71.6,68.4,65.7,86,70,48,0.00,40.00,15,6,17,0.01
2013-4-13,91.6,81.4,72.0,70.2,65.4,61.9,80,60,40,0.00,40.00,13,4,17,0.00
2013-4-14,91.0,79.7,70.0,70.5,66.9,63.7,83,67,43,0.00,40.00,17,5,17,0.02
2013-4-15,92.5,79.7,66.2,69.8,65.2,60.3,83,63,44,0.00,40.00,17,4,17,0.30
2013-4-16,99.7,81.1,70.0,68.7,65.5,63.0,85,62,31,0.00,40.00,15,5,18,0.00
2013-4-17,94.5,80.0,69.4,65.7,63.3,59.7,83,59,35,0.00,40.00,13,5,15,0.00
2013-4-18,91.9,79.3,70.0,70.9,64.6,59.9,84,63,40,0.00,40.00,13,4,16,0.28
2013-4-19,91.6,79.2,69.8,71.4,67.3,64.4,87,69,42,0.00,40.00,14,4,17,0.05
2013-4-20,90.9,79.1,69.6,72.0,66.3,63.1,85,67,42,0.00,40.00,14,3,15,0.00
2013-4-21,93.7,76.0,65.3,66.6,63.5,59.7,84,67,40,0.00,40.00,17,6,18,0.24
2013-4-22,89.1,75.1,67.8,68.0,64.8,62.2,88,72,44,0.00,40.00,11,4,12,0.15
2013-4-23,91.9,76.6,66.7,64.4,61.4,57.9,85,62,37,0.00,40.00,15,6,16,0.01
2013-4-24,90.3,75.9,62.2,63.1,60.6,57.9,87,62,35,0.00,40.00,12,4,13,0.00
2013-4-25,93.7,78.5,63.7,65.5,59.0,51.3,84,54,27,0.00,40.00,10,3,14,0.00
2013-4-26,91.6,77.2,61.5,61.7,58.6,55.9,84,55,33,0.00,40.00,17,4,17,0.00
2013-4-27,93.0,78.4,66.6,63.0,59.3,55.2,82,55,32,0.00,40.00,17,5,17,0.00
2013-4-28,91.9,77.9,67.8,66.0,60.6,57.2,72,57,35,0.00,40.00,15,6,15,0.00
2013-4-29,90.5,76.9,67.3,65.3,61.1,57.2,75,60,40,0.00,40.00,15,5,18,0.00
2013-4-30,83.8,72.8,68.0,71.2,64.8,61.7,85,76,56,0.00,40.00,11,2,11,0.00
2013-5-1,82.6,72.5,68.5,69.8,65.7,63.3,87,80,63,0.00,40.00,15,4,23,0.66
2013-5-2,82.4,70.7,66.7,69.3,65.4,62.1,89,84,58,0.00,40.00,8,2,10,0.40
2013-5-3,86.0,75.1,64.2,72.1,64.1,60.8,91,71,47,0.00,40.00,14,4,17,0.00
2013-5-4,83.5,75.4,68.9,66.2,63.2,60.1,83,67,50,0.00,40.00,21,7,22,0.00
2013-5-5,83.3,73.7,62.6,64.2,54.9,45.1,79,55,28,0.00,40.00,15,6,17,0.00
2013-5-6,82.4,70.3,57.4,64.8,56.9,51.3,87,65,44,0.00,40.00,14,4,14,0.00
2013-5-7,80.6,70.0,57.0,61.9,56.3,52.7,86,64,44,0.00,40.00,17,4,17,0.00
2013-5-8,84.4,72.0,58.3,63.9,55.4,48.7,88,60,31,0.00,40.00,13,3,16,0.00
2013-5-9,90.9,74.5,57.9,62.2,56.4,48.6,88,58,25,0.00,40.00,13,3,14,0.00
2013-5-10,90.5,78.5,64.4,68.9,64.4,58.8,87,64,42,0.00,40.00,14,4,16,0.00
2013-5-11,90.1,79.6,69.4,71.4,67.7,63.3,86,69,42,0.00,40.00,18,4,18,0.00
2013-5-12,87.8,79.9,72.7,74.8,69.3,65.3,90,71,53,0.00,40.00,18,4,19,0.00
2013-5-13,91.0,79.0,69.8,68.5,63.6,49.1,87,62,39,0.00,40.00,13,4,14,0.00
2013-5-14,91.0,76.3,63.9,55.8,52.6,48.2,68,46,25,0.00,40.00,16,6,17,0.00
2013-5-15,91.9,76.4,60.6,59.9,55.8,52.7,79,51,30,0.00,40.00,15,5,15,0.00
2013-5-16,95.2,78.5,64.8,61.0,57.6,50.7,77,52,28,0.00,40.00,9,3,11,0.00
2013-5-17,94.3,79.5,64.6,64.6,60.8,56.8,84,56,31,0.00,40.00,12,3,15,0.00
2013-5-18,92.7,81.1,67.5,70.3,65.0,61.5,87,61,40,0.00,40.00,15,4,15,0.00
2013-5-19,93.7,79.7,71.4,68.5,65.7,63.0,80,64,41,0.00,40.00,14,3,17,0.01
2013-5-20,96.4,77.7,70.5,70.7,66.2,62.1,88,70,33,0.00,40.00,21,3,21,0.33
2013-5-21,93.9,77.5,68.5,70.0,66.2,63.5,89,70,42,0.00,40.00,14,4,14,0.22
2013-5-22,90.0,79.3,69.6,73.4,66.8,63.3,89,68,44,0.00,40.00,15,4,17,0.00
2013-5-23,91.4,80.3,69.1,72.9,66.2,63.5,89,65,41,0.00,40.00,14,4,15,0.00
2013-5-24,94.6,82.5,72.9,70.3,66.5,60.1,87,61,36,0.00,40.00,15,4,18,0.00
2013-5-25,95.7,81.4,68.5,68.7,63.6,60.1,85,58,35,0.00,40.00,15,5,15,0.00
2013-5-26,95.2,79.8,65.7,62.6,60.9,54.5,84,55,26,0.00,40.00,17,6,17,0.00
2013-5-27,95.7,79.3,68.5,67.5,62.8,59.5,75,58,40,0.00,40.00,15,6,17,0.00
2013-5-28,92.5,79.5,73.9,69.3,67.5,65.8,82,68,44,0.00,40.00,17,6,20,0.00
2013-5-29,85.8,77.3,72.3,70.2,67.6,65.1,86,73,53,0.00,40.00,21,6,23,0.06
2013-5-30,93.0,79.7,71.8,69.8,67.7,65.8,84,68,45,0.00,40.00,20,7,20,0.01
2013-5-31,91.2,79.5,73.0,73.0,69.4,67.1,85,73,48,0.00,40.00,15,5,15,0.13
2013-6-1,92.8,80.4,73.6,72.3,70.0,66.6,90,72,46,0.00,40.00,15,4,15,0.00
2013-6-2,92.8,80.9,72.1,72.1,69.4,66.6,88,70,46,0.00,40.00,11,4,16,0.00
2013-6-3,86.7,79.2,73.9,72.3,69.9,67.5,85,74,55,0.00,40.00,11,3,62,0.01
2013-6-4,83.7,77.5,72.0,72.1,70.1,67.3,89,78,64,0.00,40.00,14,3,14,0.08
2013-6-5,80.6,77.6,75.9,73.8,72.2,70.7,89,83,75,0.00,40.00,11,4,11,0.22
2013-6-6,82.9,77.0,72.5,75.2,71.4,66.9,91,83,71,0.00,40.00,23,8,27,1.02
2013-6-7,87.6,79.1,74.5,74.3,71.7,67.6,91,79,53,0.00,40.00,15,3,15,0.18
2013-6-8,93.4,82.7,74.5,75.2,72.1,69.4,86,72,47,0.00,40.00,16,5,17,0.00
2013-6-9,96.3,83.8,75.9,74.1,71.3,67.3,89,68,43,0.00,40.00,11,4,16,0.01
2013-6-10,95.4,83.9,75.4,74.5,71.4,68.5,87,68,43,0.00,40.00,11,3,14,0.00
2013-6-11,97.2,83.0,70.2,75.7,71.6,65.5,91,71,42,0.00,40.00,22,3,26,0.69
2013-6-12,95.5,78.2,71.6,76.5,70.8,66.4,92,80,43,0.00,40.00,19,2,20,1.72
2013-6-13,91.8,79.2,69.1,80.4,70.2,66.9,93,76,48,0.00,40.00,13,2,16,0.00
2013-6-14,92.7,82.4,73.6,77.0,70.6,66.6,92,70,45,0.00,40.00,12,4,16,0.01
2013-6-15,95.2,83.4,73.0,75.7,70.8,68.9,90,68,45,0.00,40.00,13,3,13,0.00
2013-6-16,97.5,84.7,74.8,75.2,71.5,69.3,89,67,41,0.00,40.00,14,3,15,0.44
2013-6-17,97.9,84.8,74.1,79.2,72.1,68.7,92,69,40,0.00,40.00,14,3,18,0.06
2013-6-18,96.4,84.5,74.7,77.2,72.4,69.3,90,69,43,0.00,40.00,15,3,15,0.12
2013-6-19,96.1,81.3,73.4,75.6,71.9,65.8,92,76,45,0.00,40.00,14,3,17,1.04
2013-6-20,92.5,79.4,72.3,75.0,70.8,68.0,92,76,52,0.00,40.00,11,2,11,0.13
2013-6-21,94.3,80.3,70.7,74.7,69.8,64.6,91,72,47,0.00,40.00,9,2,11,0.09
2013-6-22,101.5,83.6,72.0,76.1,70.0,64.9,92,68,33,0.00,40.00,12,3,12,0.00
2013-6-23,97.5,81.9,73.9,74.5,70.8,67.5,90,71,40,0.00,40.00,15,3,16,0.00
2013-6-24,99.5,84.6,75.2,73.6,70.7,67.3,88,66,38,0.00,40.00,13,4,15,0.00
2013-6-25,102.0,83.7,74.7,73.9,70.1,64.6,88,67,34,0.00,40.00,22,4,23,0.00
2013-6-26,92.5,78.6,71.4,75.2,71.1,66.7,90,79,50,0.00,40.00,25,3,25,0.50
2013-6-27,95.0,79.8,70.7,75.9,70.7,67.5,93,76,47,0.00,40.00,13,2,21,0.09
2013-6-28,93.0,82.9,72.9,75.7,71.1,67.1,92,70,47,0.00,40.00,17,4,120,0.00
2013-6-29,92.1,84.2,75.6,74.3,72.3,69.8,89,69,50,0.00,40.00,16,5,16,0.00
2013-6-30,91.4,83.7,73.9,75.7,73.0,71.1,93,72,55,0.00,40.00,21,8,21,1.25
2013-7-1,89.6,76.1,71.2,75.7,72.1,67.5,93,88,54,0.00,40.00,27,4,31,1.97
2013-7-2,93.9,77.9,73.4,78.4,72.8,70.0,93,85,57,0.00,40.00,14,3,15,0.39
2013-7-3,93.6,78.0,73.4,75.6,72.2,69.4,92,83,51,0.00,40.00,13,3,20,0.31
2013-7-4,93.0,80.6,72.9,75.6,72.2,69.4,92,77,48,0.00,40.00,15,4,15,0.01
2013-7-5,94.5,80.5,75.0,74.8,72.1,68.7,89,77,51,0.00,40.00,18,4,98,0.11
2013-7-6,97.2,84.2,75.6,76.1,72.5,68.5,92,71,41,0.00,40.00,18,4,18,0.00
2013-7-7,97.5,84.2,76.8,75.4,72.6,67.8,90,71,40,0.00,40.00,19,4,19,0.05
2013-7-8,97.9,83.1,74.1,75.7,71.8,68.0,93,72,40,0.00,40.00,14,3,14,0.01
2013-7-9,93.6,80.2,71.8,77.0,71.4,68.4,93,76,44,0.00,40.00,11,2,15,0.22
2013-7-10,92.3,80.1,71.8,76.3,71.4,68.9,94,77,49,0.00,40.00,17,2,17,0.02
2013-7-11,92.3,81.1,73.0,76.1,72.2,68.9,94,76,48,0.00,40.00,9,2,9,0.52
2013-7-12,92.8,81.0,73.2,78.4,72.3,70.3,94,76,53,0.00,40.00,11,2,14,0.07
2013-7-13,91.4,78.2,72.9,77.4,72.5,69.8,94,83,57,0.00,40.00,15,3,19,0.76
2013-7-14,86.2,76.8,73.4,74.7,72.0,70.2,93,86,61,0.00,40.00,13,4,13,0.19
2013-7-15,95.2,79.5,71.8,73.9,71.1,69.3,94,77,44,0.00,40.00,15,3,15,0.04
2013-7-16,90.7,80.0,74.3,73.0,71.2,67.5,92,76,52,0.00,40.00,15,6,17,0.15
2013-7-17,89.1,79.9,74.3,74.1,71.6,68.0,94,77,58,0.00,40.00,13,4,15,0.00
2013-7-18,83.8,75.1,71.4,74.7,71.6,68.7,95,89,73,0.00,40.00,15,2,15,0.72
2013-7-19,95.9,79.3,70.2,76.5,72.8,68.4,95,82,48,0.00,40.00,13,3,17,0.65
2013-7-20,94.3,80.1,73.6,80.2,73.3,69.3,94,81,54,0.00,40.00,11,3,17,0.00
2013-7-21,95.2,82.6,75.2,80.2,74.6,68.4,93,78,49,0.00,40.00,12,3,12,0.08
2013-7-22,93.6,84.0,74.5,76.8,74.0,70.2,93,74,48,0.00,40.00,12,4,13,0.08
2013-7-23,93.7,84.0,75.0,78.6,73.8,69.8,94,74,50,0.00,40.00,13,4,14,0.00
2013-7-24,91.4,82.9,73.4,77.9,71.9,65.7,94,71,44,0.00,40.00,15,4,15,0.00
2013-7-25,92.1,84.7,78.3,74.8,73.4,71.8,83,70,53,0.00,40.00,18,6,18,0.00
2013-7-26,93.6,85.3,74.3,78.1,73.9,68.5,93,70,51,0.00,40.00,17,5,17,0.19
2013-7-27,96.1,84.0,75.0,81.1,74.8,71.6,93,75,49,0.00,40.00,15,3,18,0.48
2013-7-28,95.4,84.6,74.7,81.5,72.5,68.9,94,70,46,0.00,40.00,12,3,14,0.00
2013-7-29,99.1,82.4,74.1,76.8,72.5,69.1,93,75,39,0.00,40.00,15,2,21,0.01
2013-7-30,100.4,82.9,74.8,78.1,74.0,70.7,94,77,41,0.00,40.00,15,2,19,0.01
2013-7-31,96.1,83.2,75.7,79.2,73.9,70.7,93,75,47,0.00,40.00,26,3,26,0.07
2013-8-1,97.9,81.8,73.6,77.4,72.6,66.6,94,76,41,0.00,40.00,13,2,13,0.08
2013-8-2,94.5,81.6,72.1,79.5,73.5,69.8,95,78,47,0.00,40.00,13,2,20,0.20
2013-8-3,93.2,81.0,75.0,81.5,75.3,72.7,94,84,58,0.00,40.00,11,2,12,0.05
2013-8-4,93.2,84.0,77.0,82.2,75.5,72.1,94,77,53,0.00,40.00,14,3,16,0.01
2013-8-5,92.7,84.1,77.2,81.9,75.6,72.9,92,77,54,0.00,40.00,17,3,17,0.08
2013-8-6,96.3,83.5,76.6,84.4,75.9,72.3,94,80,47,0.00,40.00,11,2,13,0.26
2013-8-8,77.7,75.8,75.0,74.1,73.5,72.7,94,93,87,0.00,40.00,7,1,7,0.04
2013-8-9,97.2,80.2,74.5,77.5,73.5,70.3,96,82,44,0.00,40.00,15,3,18,0.21
2013-8-10,100.2,85.9,74.8,77.2,72.8,69.4,93,68,39,0.00,40.00,12,4,15,0.01
2013-8-11,101.8,87.9,77.2,76.6,73.5,69.1,91,65,38,0.00,40.00,10,4,14,0.00
2013-8-12,99.1,86.8,74.7,76.8,71.8,65.1,93,65,34,0.00,40.00,11,4,15,0.00
2013-8-13,98.6,84.4,75.0,80.2,73.9,69.4,93,73,42,0.00,40.00,18,3,21,0.06
2013-8-14,96.4,84.2,73.2,80.4,73.1,69.4,95,72,43,0.00,40.00,12,3,14,0.00
2013-8-15,90.1,81.3,76.5,78.1,74.6,72.5,93,81,61,0.00,40.00,8,2,9,0.02
2013-8-16,98.8,84.5,76.5,79.7,74.8,68.5,94,76,40,0.00,40.00,15,2,22,0.14
2013-8-17,100.4,82.8,73.4,79.2,75.0,69.6,95,81,40,0.00,40.00,22,3,39,0.71
2013-8-18,98.4,83.3,75.7,79.5,75.1,71.4,95,79,45,0.00,40.00,13,4,16,0.22
2013-8-19,97.7,80.3,73.2,78.1,74.1,69.8,96,83,45,0.00,40.00,19,3,19,0.59
2013-8-20,96.6,81.6,73.0,79.9,74.1,71.6,96,80,49,0.00,40.00,13,3,21,0.09
2013-8-21,96.8,83.9,77.2,78.1,75.2,72.1,92,77,49,0.00,40.00,15,4,17,0.07
2013-8-22,99.3,82.8,74.8,78.3,74.7,71.1,96,79,42,0.00,40.00,12,4,15,1.67
2013-8-23,97.3,81.7,74.5,82.2,75.2,72.1,97,83,45,0.00,40.00,12,2,12,0.01
2013-8-24,102.7,83.1,74.3,79.7,73.9,69.4,94,77,39,0.00,40.00,11,3,57,0.71
2013-8-25,95.2,81.1,75.4,77.2,74.2,69.3,94,81,49,0.00,40.00,12,4,12,0.06
2013-8-26,96.8,80.0,70.9,76.8,73.5,68.2,95,83,44,0.00,40.00,16,3,16,0.87
2013-8-27,94.6,79.4,71.6,78.3,72.7,69.3,97,82,47,0.00,40.00,15,2,15,0.18
2013-8-28,76.5,74.7,72.9,74.7,72.8,70.9,95,94,92,0.00,40.00,8,2,8,1.30
2013-8-29,98.1,81.9,72.3,76.3,72.7,69.1,96,76,41,0.00,40.00,13,3,13,0.15
2013-8-30,96.3,82.4,73.6,81.3,74.2,71.1,96,79,46,0.00,40.00,15,2,15,0.98
2013-8-31,92.3,82.1,73.6,77.9,73.1,70.9,95,76,52,0.00,40.00,11,4,14,0.00
2013-9-1,94.8,81.4,74.5,77.4,73.1,70.9,94,78,49,0.00,40.00,16,3,17,0.00
2013-9-2,93.0,79.0,74.5,78.3,74.1,71.6,96,86,59,0.00,40.00,9,2,10,0.45
2013-9-3,97.2,82.2,72.5,80.1,73.7,71.2,97,78,47,0.00,40.00,9,2,9,0.00
2013-9-4,95.7,80.8,75.6,78.4,74.7,71.4,94,83,51,0.00,40.00,12,2,15,0.01
2013-9-5,100.6,84.7,77.0,79.9,74.9,69.3,95,75,39,0.00,40.00,11,3,11,0.00
2013-9-6,101.7,84.8,71.6,79.2,74.3,68.5,97,74,40,0.00,40.00,13,3,17,2.06
2013-9-7,96.8,80.2,73.4,77.9,73.5,70.5,96,82,47,0.00,40.00,13,4,18,0.01
2013-9-8,95.4,81.0,71.2,75.9,71.9,67.6,96,77,43,0.00,40.00,11,3,13,0.01
2013-9-9,98.4,83.3,74.5,76.8,73.4,70.0,95,75,41,0.00,40.00,12,3,13,0.00
2013-9-10,95.7,83.0,75.0,76.6,73.3,70.3,94,75,46,0.00,40.00,20,5,20,0.05
2013-9-11,91.6,81.2,74.7,77.9,74.5,72.9,94,81,58,0.00,40.00,15,4,15,0.20
2013-9-12,94.3,81.9,75.0,78.4,74.3,71.8,95,80,50,0.00,40.00,15,3,17,0.06
2013-9-15,79.2,76.7,75.0,74.3,72.5,70.7,92,87,76,0.00,40.00,8,2,14,0.01
2013-9-16,95.0,78.6,74.8,77.7,74.0,71.2,95,87,51,0.00,40.00,15,4,15,0.15
2013-9-17,91.9,77.7,73.4,78.3,74.1,72.0,98,90,57,0.00,40.00,14,3,20,1.33
2013-9-18,97.2,79.1,72.7,77.9,73.6,70.5,98,85,43,0.00,40.00,16,3,21,0.85
2013-9-19,96.8,80.8,72.0,79.0,73.9,71.1,98,81,45,0.00,40.00,14,3,14,0.00
2013-9-20,95.4,82.8,73.8,74.3,70.6,66.2,95,70,42,0.00,40.00,11,4,14,0.00
2013-9-21,93.9,81.3,71.6,73.9,71.3,68.0,93,74,44,0.00,40.00,14,3,14,0.00
2013-9-22,91.4,81.7,73.4,76.1,74.0,72.0,96,79,55,0.00,40.00,15,3,15,0.00
2013-9-23,85.8,78.9,75.6,78.1,75.9,73.4,94,91,73,0.00,40.00,10,2,11,0.65
2013-9-24,88.0,76.9,72.0,81.9,74.2,69.3,98,92,72,0.00,40.00,15,3,16,1.46
2013-9-25,85.1,76.6,73.0,76.3,73.6,70.5,98,91,71,0.00,40.00,15,2,15,0.31
2013-9-26,91.6,82.3,74.7,80.4,76.2,73.2,96,83,59,0.00,40.00,19,5,20,0.17
2013-9-27,93.0,80.7,72.1,73.6,70.3,63.3,95,73,41,0.00,40.00,12,3,12,0.00
2013-9-28,96.8,81.4,71.1,74.1,70.7,67.6,93,72,41,0.00,40.00,17,4,17,0.00
2013-9-29,96.1,81.6,72.0,72.7,70.0,65.7,93,71,41,0.00,40.00,8,3,10,0.00
2013-9-30,95.7,81.7,70.9,75.9,71.1,68.2,95,73,42,0.00,40.00,11,3,15,0.00
2013-10-1,97.0,82.6,72.3,75.7,71.3,67.3,95,71,40,0.00,40.00,14,4,15,0.00
2013-10-2,94.6,81.9,75.4,74.5,72.6,71.2,88,75,50,0.00,40.00,13,5,15,0.00
2013-10-3,95.9,79.5,74.8,75.7,73.4,71.4,96,83,50,0.00,40.00,14,3,20,0.30
2013-10-4,97.7,82.4,73.4,75.9,71.6,64.9,97,73,40,0.00,40.00,12,3,12,0.01
2013-10-5,98.1,82.5,72.5,73.0,70.0,64.4,93,69,34,0.00,40.00,10,3,11,0.00
2013-10-6,91.8,80.5,70.7,77.2,71.8,68.7,96,77,48,0.00,40.00,11,3,13,0.00
2013-10-7,89.2,80.8,74.1,77.4,74.7,71.8,95,83,65,0.00,40.00,22,5,22,0.00
2013-10-8,88.2,79.4,71.8,78.4,71.0,67.5,96,77,55,0.00,40.00,17,3,17,0.00
2013-10-9,92.1,79.4,73.6,73.4,71.2,68.9,93,77,49,0.00,40.00,12,4,13,0.00
2013-10-10,97.9,79.4,69.1,72.0,68.5,65.3,95,72,39,0.00,40.00,11,4,12,0.00
2013-10-11,97.9,79.4,67.1,74.8,65.9,60.3,98,68,30,0.00,40.00,10,2,10,0.00
2013-10-12,91.6,77.9,66.7,73.4,66.7,62.6,97,72,41,0.00,40.00,11,2,13,0.00
2013-10-13,95.4,79.4,68.5,73.0,65.6,60.8,93,65,37,0.00,40.00,10,3,10,0.00
2013-10-14,94.8,78.9,66.0,69.1,65.1,61.0,96,66,35,0.00,40.00,11,3,12,0.00
2013-10-15,95.0,79.6,69.1,70.9,66.9,61.9,95,69,36,0.00,40.00,10,3,11,0.00
2013-10-16,93.0,78.4,68.5,73.8,68.7,64.6,98,75,42,0.00,40.00,10,2,11,0.00
2013-10-17,91.4,79.2,68.0,77.7,69.1,67.1,97,74,48,0.00,40.00,10,2,11,0.00
2013-10-18,97.0,81.1,70.0,76.8,70.3,66.9,96,73,39,0.00,40.00,11,2,11,0.00
2013-10-19,92.1,82.2,73.2,76.3,73.7,70.7,94,77,52,0.00,40.00,12,3,12,0.00
2013-10-20,93.6,82.4,74.1,81.9,73.3,66.7,97,76,46,0.00,40.00,10,2,12,0.00
2013-10-21,91.4,81.6,72.5,81.7,73.3,70.7,96,78,57,0.00,40.00,10,2,14,0.00
2013-10-22,91.6,80.9,72.3,78.3,73.9,70.3,97,81,58,0.00,40.00,15,4,15,0.04
2013-10-23,85.8,77.9,70.7,78.8,69.4,55.2,97,77,50,0.00,40.00,15,3,15,0.02
2013-10-24,77.4,71.2,66.9,62.8,58.0,52.7,81,63,54,0.00,40.00,15,6,15,0.00
2013-10-25,84.4,71.6,63.0,63.5,60.7,58.3,87,70,46,0.00,40.00,14,5,17,0.00
2013-10-26,90.1,73.2,62.6,64.0,59.9,54.1,88,66,35,0.00,40.00,10,4,11,0.00
2013-10-27,92.1,72.9,60.3,63.5,58.7,55.4,92,65,30,0.00,40.00,8,3,10,0.00
2013-10-28,91.9,75.1,62.2,65.5,62.7,59.9,96,69,38,0.00,40.00,11,4,11,0.00
2013-10-29,93.0,76.7,65.1,67.8,65.2,63.1,94,70,42,0.00,40.00,16,5,16,0.00
2013-10-30,91.8,76.8,65.8,69.6,65.0,61.9,98,70,40,0.00,40.00,13,4,15,0.00
2013-10-31,92.7,77.0,66.6,71.8,67.4,62.1,96,75,40,0.00,40.00,13,3,14,0.00
2013-11-1,88.2,76.5,66.6,76.5,70.1,65.7,98,82,55,0.00,40.00,15,3,16,0.00
2013-11-2,87.1,75.2,68.4,77.4,69.1,60.3,99,82,55,0.00,40.00,15,4,17,0.01
2013-11-3,85.3,72.1,62.8,62.8,54.1,45.3,88,57,27,0.00,40.00,17,7,23,0.00
2013-11-4,84.2,72.0,59.0,63.9,58.7,52.2,84,64,44,0.00,40.00,17,7,20,0.00
2013-11-5,88.2,76.2,68.0,70.5,67.4,63.9,91,75,50,0.00,40.00,17,7,22,0.00
2013-11-6,94.1,79.2,70.3,70.2,67.9,66.0,89,70,42,0.00,40.00,13,5,16,0.00
2013-11-7,88.3,75.7,67.6,71.2,67.2,65.3,98,77,50,0.00,40.00,11,3,12,0.00
2013-11-8,88.3,75.4,66.0,68.5,66.5,64.8,98,76,52,0.00,40.00,16,6,17,0.00
2013-11-9,85.6,74.0,69.1,72.5,68.0,65.1,89,82,62,0.00,40.00,18,6,18,0.00
2013-11-14,83.5,73.2,59.4,59.9,57.6,53.8,82,60,40,0.00,40.00,21,7,21,0.00
2013-11-15,86.5,74.3,66.4,68.5,64.1,58.1,81,71,53,0.00,40.00,13,5,15,0.00
2013-11-16,82.8,74.6,69.8,72.9,67.9,63.1,96,80,60,0.00,40.00,14,5,14,0.08
2013-11-17,92.8,77.1,69.1,72.1,68.8,66.0,96,78,45,0.00,40.00,12,3,14,0.00
2013-11-18,90.7,76.8,66.4,74.7,68.9,65.8,99,79,50,0.00,40.00,10,2,10,0.00
2013-11-19,88.0,76.7,68.4,77.5,70.2,67.1,97,82,55,0.00,40.00,11,2,11,0.00
2013-11-20,95.0,77.0,67.6,72.1,68.9,66.0,99,79,41,0.00,40.00,8,3,11,0.00
2013-11-21,95.2,78.9,72.1,74.1,71.1,67.8,95,80,43,0.00,40.00,13,3,13,0.09
2013-11-22,89.2,77.3,70.2,72.9,69.1,65.8,98,78,50,0.00,40.00,15,5,15,0.01
2013-11-23,93.9,76.5,66.9,72.0,67.8,64.4,95,77,43,0.00,40.00,11,3,12,0.01
2013-11-24,84.0,71.5,65.1,69.3,65.4,61.2,99,82,56,0.00,40.00,20,6,21,0.01
2013-11-25,83.1,71.7,35.1,66.0,62.3,20.5,87,74,51,0.00,40.00,19,7,21,0.00
2013-11-26,86.9,76.6,70.0,73.9,70.2,66.0,98,82,58,0.00,40.00,18,6,20,0.21
2013-11-27,77.7,69.8,53.4,72.9,61.3,47.3,97,76,50,0.00,40.00,18,8,24,0.02
2013-11-28,75.9,57.0,41.2,54.1,47.0,37.9,90,71,43,0.00,40.00,16,7,17,0.00
2013-11-29,81.7,65.5,53.4,60.1,56.4,52.2,97,75,47,0.00,40.00,18,7,18,0.00
2013-11-30,82.4,66.9,57.0,66.2,61.0,54.9,99,82,54,0.00,40.00,12,6,17,0.00
2013-12-1,82.2,67.3,61.2,67.5,63.6,60.4,99,89,58,0.00,40.00,11,4,12,0.00
2013-12-2,79.5,66.5,57.9,66.2,62.7,57.6,99,89,59,0.00,40.00,9,2,11,0.00
2013-12-3,83.3,70.9,62.4,66.0,63.2,59.5,97,79,52,0.00,40.00,13,3,14,0.00
2013-12-4,87.3,73.1,62.8,70.2,65.2,61.7,99,78,47,0.00,40.00,12,2,12,0.00
2013-12-5,90.7,74.0,64.2,72.5,66.6,63.3,99,80,42,0.00,40.00,17,2,17,0.00
2013-12-6,89.6,75.7,67.5,74.7,68.8,64.9,99,81,48,0.00,40.00,11,3,71,0.00
2013-12-7,94.6,75.7,62.2,73.6,66.0,61.7,99,75,40,0.00,40.00,8,2,10,0.00
2013-12-8,90.9,75.7,67.1,72.1,66.9,63.5,98,78,42,0.00,40.00,9,3,21,0.00
2013-12-9,94.8,76.1,67.3,75.4,67.3,62.8,98,78,40,0.00,40.00,11,3,16,0.00
2013-12-10,89.8,75.3,64.0,72.5,67.7,63.1,99,80,45,0.00,40.00,11,2,11,0.00
2013-12-11,93.4,76.1,66.9,70.5,67.9,64.9,99,78,44,0.00,40.00,11,3,12,0.00
2013-12-12,75.9,68.2,58.5,68.4,61.5,39.0,99,81,40,0.00,40.00,14,5,15,0.00
2013-12-13,84.2,67.9,54.0,63.7,57.0,45.1,89,70,47,0.00,40.00,12,5,17,0.00
2013-12-14,89.2,75.3,65.3,72.0,68.3,63.1,98,81,49,0.00,40.00,14,4,17,0.00
2013-12-15,82.4,73.8,67.1,74.7,70.3,60.1,97,89,70,0.00,40.00,13,4,13,0.15
2013-12-16,76.6,64.8,55.2,60.8,55.7,50.5,89,73,50,0.00,40.00,11,5,12,0.00
2013-12-17,86.9,64.0,49.5,61.7,54.5,45.5,94,74,41,0.00,40.00,11,4,11,0.00
2013-12-18,81.5,63.1,52.2,56.7,47.1,36.3,98,63,20,0.00,40.00,15,3,15,0.00
2013-12-19,86.2,66.4,51.8,60.8,54.7,47.5,94,69,40,0.00,40.00,11,4,13,0.00
2013-12-20,88.0,73.4,62.1,69.3,64.6,58.1,94,76,49,0.00,40.00,14,4,15,0.00
2013-12-21,91.9,76.5,67.8,72.7,68.5,65.7,98,78,46,0.00,40.00,17,4,17,0.05
2013-12-22,90.7,76.3,69.4,73.0,69.6,67.6,99,82,49,0.00,40.00,15,4,15,0.01
2013-12-23,87.8,76.2,69.1,75.2,70.6,67.8,99,85,59,0.00,40.00,15,4,17,0.01
2013-12-24,75.6,68.1,57.2,71.4,62.2,40.8,99,82,44,0.00,40.00,15,6,17,0.00
2013-12-25,81.9,66.9,56.5,65.1,57.5,46.8,83,72,54,0.00,40.00,15,6,15,0.00
2013-12-26,87.8,72.4,63.9,69.1,64.0,59.2,89,76,48,0.00,40.00,11,4,11,0.00